createdAt,value
2022-11-10T00:01:09.097Z,7.10
2022-11-10T00:03:38.148Z,7.20
2022-11-10T00:06:07.327Z,7.30
2022-11-10T00:08:35.097Z,7.30
2022-11-10T00:11:07.231Z,7.30
2022-11-10T00:13:56.650Z,7.40
2022-11-10T00:16:42.576Z,7.50
2022-11-10T00:19:10.118Z,7.60
2022-11-10T00:21:37.984Z,7.70
2022-11-10T00:24:05.998Z,7.70
2022-11-10T00:26:33.100Z,7.80
2022-11-10T00:29:00.293Z,7.90
2022-11-10T00:31:28.676Z,7.90
2022-11-10T00:33:55.995Z,7.90
2022-11-10T00:36:24.109Z,8.00
2022-11-10T00:38:51.821Z,8.00
2022-11-10T00:41:19.018Z,8.10
2022-11-10T00:43:46.596Z,8.10
2022-11-10T00:46:14.523Z,8.10
2022-11-10T00:48:41.673Z,8.10
2022-11-10T00:51:23.192Z,8.10
2022-11-10T00:53:50.854Z,8.10
2022-11-10T00:56:19.202Z,8.20
2022-11-10T00:58:46.386Z,8.10
2022-11-10T01:01:14.680Z,8.10
2022-11-10T01:03:42.257Z,8.00
2022-11-10T01:06:12.967Z,8.10
2022-11-10T01:08:41.465Z,8.10
2022-11-10T01:11:10.140Z,8.10
2022-11-10T01:13:37.594Z,8.00
2022-11-10T01:16:16.570Z,8.00
2022-11-10T01:18:43.837Z,8.10
2022-11-10T01:21:10.948Z,8.20
2022-11-10T01:23:38.225Z,8.10
2022-11-10T01:26:07.278Z,8.10
2022-11-10T01:28:36.201Z,8.10
2022-11-10T01:31:07.056Z,8.10
2022-11-10T01:33:35.051Z,8.20
2022-11-10T01:36:02.463Z,8.20
2022-11-10T01:38:32.767Z,8.20
2022-11-10T01:41:00.380Z,8.20
2022-11-10T01:43:28.896Z,8.20
2022-11-10T01:46:02.068Z,8.20
2022-11-10T01:48:47.144Z,8.20
2022-11-10T01:51:29.420Z,8.20
2022-11-10T01:54:03.583Z,8.30
2022-11-10T01:56:35.097Z,8.20
2022-11-10T01:59:06.993Z,8.30
2022-11-10T02:01:34.269Z,8.30
2022-11-10T02:04:05.237Z,8.40
2022-11-10T02:06:37.359Z,8.30
2022-11-10T02:09:04.973Z,8.40
2022-11-10T02:11:33.488Z,8.30
2022-11-10T02:14:01.651Z,8.40
2022-11-10T02:16:29.606Z,8.40
2022-11-10T02:18:56.796Z,8.40
2022-11-10T02:21:24.565Z,8.50
2022-11-10T02:23:54.942Z,8.50
2022-11-10T02:26:29.351Z,8.40
2022-11-10T02:28:56.571Z,8.40
2022-11-10T02:31:23.881Z,8.40
2022-11-10T02:33:51.083Z,8.40
2022-11-10T02:36:18.209Z,8.40
2022-11-10T02:38:45.331Z,8.40
2022-11-10T02:41:12.543Z,8.40
2022-11-10T02:43:39.860Z,8.40
2022-11-10T02:46:07.271Z,8.40
2022-11-10T02:48:34.609Z,8.40
2022-11-10T02:51:01.883Z,8.30
2022-11-10T02:53:29.130Z,8.20
2022-11-10T02:55:56.429Z,8.10
2022-11-10T02:58:23.648Z,8.00
2022-11-10T03:00:50.791Z,7.90
2022-11-10T03:03:18.136Z,7.80
2022-11-10T03:05:45.361Z,7.80
2022-11-10T03:08:12.715Z,7.70
2022-11-10T03:10:39.863Z,7.60
2022-11-10T03:13:07.090Z,7.60
2022-11-10T03:15:34.202Z,7.50
2022-11-10T03:18:04.443Z,7.50
2022-11-10T03:20:31.599Z,7.40
2022-11-10T03:23:05.854Z,7.30
2022-11-10T03:25:34.413Z,7.20
2022-11-10T03:28:01.633Z,7.20
2022-11-10T03:30:29.202Z,7.10
2022-11-10T03:32:56.329Z,7.10
2022-11-10T03:35:23.456Z,6.90
2022-11-10T03:37:50.630Z,6.90
2022-11-10T03:40:17.830Z,6.90
2022-11-10T03:42:46.062Z,6.80
2022-11-10T03:45:14.735Z,6.80
2022-11-10T03:47:46.511Z,6.70
2022-11-10T03:50:14.355Z,6.70
2022-11-10T03:52:43.883Z,6.60
2022-11-10T03:55:17.016Z,6.60
2022-11-10T03:57:44.616Z,6.70
2022-11-10T04:00:13.530Z,6.70
2022-11-10T04:02:40.722Z,6.80
2022-11-10T04:05:27.010Z,6.90
2022-11-10T04:08:17.350Z,7.00
2022-11-10T04:10:44.551Z,7.10
2022-11-10T04:13:30.453Z,7.30
2022-11-10T04:15:57.734Z,7.40
2022-11-10T04:18:25.251Z,7.40
2022-11-10T04:20:59.367Z,7.50
2022-11-10T04:23:34.882Z,7.50
2022-11-10T04:26:25.104Z,7.50
2022-11-10T04:28:55.281Z,7.40
2022-11-10T04:31:23.701Z,7.50
2022-11-10T04:33:51.960Z,7.50
2022-11-10T04:36:30.786Z,7.40
2022-11-10T04:38:58.356Z,7.30
2022-11-10T04:41:27.105Z,7.20
2022-11-10T04:43:54.649Z,7.10
2022-11-10T04:46:28.065Z,7.10
2022-11-10T04:48:56.242Z,7.10
2022-11-10T04:51:26.420Z,7.10
2022-11-10T04:53:53.686Z,7.00
2022-11-10T04:56:22.908Z,6.90
2022-11-10T04:58:50.731Z,6.80
2022-11-10T05:01:20.561Z,6.80
2022-11-10T05:03:48.957Z,6.70
2022-11-10T05:06:16.383Z,6.70
2022-11-10T05:08:44.273Z,6.60
2022-11-10T05:11:12.405Z,6.60
2022-11-10T05:13:40.135Z,6.60
2022-11-10T05:16:07.642Z,6.50
2022-11-10T05:18:35.346Z,6.50
2022-11-10T05:21:02.520Z,6.50
2022-11-10T05:23:38.798Z,6.50
2022-11-10T05:26:11.520Z,6.40
2022-11-10T05:28:39.852Z,6.40
2022-11-10T05:31:07.927Z,6.30
2022-11-10T05:33:36.482Z,6.30
2022-11-10T05:36:04.573Z,6.20
2022-11-10T05:38:32.277Z,6.20
2022-11-10T05:40:59.493Z,6.20
2022-11-10T05:43:26.859Z,6.10
2022-11-10T05:45:54.064Z,6.10
2022-11-10T05:48:21.431Z,6.00
2022-11-10T05:50:48.671Z,6.00
2022-11-10T05:53:15.835Z,5.90
2022-11-10T05:55:43.439Z,5.90
2022-11-10T05:58:10.815Z,5.80
2022-11-10T06:00:37.979Z,5.80
2022-11-10T06:03:10.574Z,5.80
2022-11-10T06:05:37.856Z,5.80
2022-11-10T06:08:06.269Z,5.80
2022-11-10T06:10:35.272Z,5.80
2022-11-10T06:13:03.614Z,5.80
2022-11-10T06:15:31.193Z,5.70
2022-11-10T06:17:58.800Z,5.80
2022-11-10T06:20:26.581Z,5.80
2022-11-10T06:23:05.917Z,5.70
2022-11-10T06:25:35.378Z,5.70
2022-11-10T06:28:02.945Z,5.70
2022-11-10T06:30:31.414Z,5.70
2022-11-10T06:32:59.267Z,5.70
2022-11-10T06:35:27.593Z,5.70
2022-11-10T06:38:06.654Z,5.80
2022-11-10T06:40:34.727Z,6.00
2022-11-10T06:43:02.868Z,6.10
2022-11-10T06:45:30.150Z,6.20
2022-11-10T06:48:04.313Z,6.30
2022-11-10T06:50:32.386Z,6.40
2022-11-10T06:53:00.556Z,6.50
2022-11-10T06:55:28.691Z,6.70
2022-11-10T06:57:56.236Z,6.80
2022-11-10T07:00:24.706Z,6.80
2022-11-10T07:03:02.791Z,6.90
2022-11-10T07:05:30.787Z,7.00
2022-11-10T07:08:03.223Z,7.10
2022-11-10T07:10:30.654Z,7.20
2022-11-10T07:12:58.978Z,7.20
2022-11-10T07:15:26.474Z,7.20
2022-11-10T07:17:54.284Z,7.40
2022-11-10T07:20:21.785Z,7.50
2022-11-10T07:22:49.349Z,7.50
2022-11-10T07:25:16.726Z,7.40
2022-11-10T07:27:44.155Z,7.50
2022-11-10T07:30:11.871Z,7.50
2022-11-10T07:32:39.010Z,7.60
2022-11-10T07:35:06.314Z,7.60
2022-11-10T07:37:33.524Z,7.60
2022-11-10T07:40:00.705Z,7.60
2022-11-10T07:42:27.832Z,7.70
2022-11-10T07:44:55.041Z,7.80
2022-11-10T07:47:22.304Z,7.80
2022-11-10T07:49:49.445Z,7.80
2022-11-10T07:52:16.866Z,7.90
2022-11-10T07:54:44.085Z,7.90
2022-11-10T07:57:11.321Z,7.90
2022-11-10T07:59:38.490Z,7.90
2022-11-10T08:02:06.877Z,8.00
2022-11-10T08:04:34.162Z,8.00
2022-11-10T08:07:01.398Z,8.10
2022-11-10T08:09:29.050Z,8.10
2022-11-10T08:11:56.181Z,8.20
2022-11-10T08:14:23.538Z,8.30
2022-11-10T08:16:50.836Z,8.30
2022-11-10T08:19:18.033Z,8.40
2022-11-10T08:21:45.400Z,8.60
2022-11-10T08:24:12.652Z,8.70
2022-11-10T08:26:39.885Z,8.80
2022-11-10T08:29:07.091Z,8.90
2022-11-10T08:31:34.485Z,9.00
2022-11-10T08:34:01.837Z,8.90
2022-11-10T08:36:29.118Z,8.90
2022-11-10T08:38:56.382Z,9.00
2022-11-10T08:41:23.900Z,8.90
2022-11-10T08:43:51.163Z,9.00
2022-11-10T08:46:18.423Z,9.00
2022-11-10T08:48:45.627Z,9.00
2022-11-10T08:51:12.917Z,9.30
2022-11-10T08:53:42.870Z,9.20
2022-11-10T08:56:10.166Z,9.30
2022-11-10T08:58:47.441Z,9.30
2022-11-10T09:01:17.588Z,9.50
2022-11-10T09:03:44.891Z,9.50
2022-11-10T09:06:12.180Z,9.40
2022-11-10T09:08:39.462Z,9.40
2022-11-10T09:11:06.863Z,9.30
2022-11-10T09:13:34.464Z,9.30
2022-11-10T09:16:05.930Z,9.20
2022-11-10T09:18:33.900Z,9.20
2022-11-10T09:21:03.942Z,9.20
2022-11-10T09:23:31.184Z,9.30
2022-11-10T09:25:58.479Z,9.50
2022-11-10T09:28:25.812Z,9.60
2022-11-10T09:30:54.066Z,9.80
2022-11-10T09:33:21.860Z,10.30
2022-11-10T09:35:49.659Z,10.20
2022-11-10T09:38:16.867Z,10.20
2022-11-10T09:41:02.729Z,10.20
2022-11-10T09:43:48.355Z,10.20
2022-11-10T09:46:29.801Z,10.20
2022-11-10T09:49:03.730Z,10.10
2022-11-10T09:51:41.735Z,10.10
2022-11-10T09:54:26.189Z,10.10
2022-11-10T09:56:55.815Z,10.10
2022-11-10T09:59:29.695Z,10.20
2022-11-10T10:02:15.916Z,10.20
2022-11-10T10:05:04.809Z,10.30
2022-11-10T10:07:57.195Z,10.10
2022-11-10T10:10:49.414Z,10.30
2022-11-10T10:13:50.593Z,10.40
2022-11-10T10:16:26.582Z,10.30
2022-11-10T10:19:27.669Z,10.30
2022-11-10T10:22:13.818Z,10.40
2022-11-10T10:24:41.204Z,10.60
2022-11-10T10:27:14.207Z,10.60
2022-11-10T10:29:46.157Z,10.60
2022-11-10T10:32:15.492Z,10.60
2022-11-10T10:34:44.644Z,10.60
2022-11-10T10:37:29.400Z,10.70
2022-11-10T10:39:56.723Z,10.70
2022-11-10T10:42:35.894Z,10.60
2022-11-10T10:45:20.973Z,10.60
2022-11-10T10:47:50.869Z,10.70
2022-11-10T10:50:32.366Z,10.70
2022-11-10T10:53:13.397Z,10.70
2022-11-10T10:56:00.588Z,10.60
2022-11-10T10:58:52.569Z,10.50
2022-11-10T11:01:34.142Z,10.50
2022-11-10T11:04:25.238Z,10.40
2022-11-10T11:07:19.430Z,10.50
2022-11-10T11:09:46.757Z,10.50
2022-11-10T11:12:27.186Z,10.40
2022-11-10T11:15:29.578Z,10.40
2022-11-10T11:18:10.271Z,10.60
2022-11-10T11:21:28.574Z,10.70
2022-11-10T11:24:33.235Z,10.60
2022-11-10T11:27:06.404Z,10.60
2022-11-10T11:29:36.545Z,10.50
2022-11-10T11:32:22.603Z,10.50
2022-11-10T11:35:08.410Z,10.40
2022-11-10T11:37:52.545Z,10.20
2022-11-10T11:40:38.672Z,10.20
2022-11-10T11:43:50.839Z,10.00
2022-11-10T11:46:24.323Z,10.00
2022-11-10T11:49:08.613Z,10.00
2022-11-10T11:51:48.812Z,10.00
2022-11-10T11:54:18.801Z,10.20
2022-11-10T11:56:49.807Z,10.20
2022-11-10T11:59:24.984Z,10.20
2022-11-10T12:01:52.074Z,10.30
2022-11-10T12:04:58.325Z,10.30
2022-11-10T12:07:50.987Z,10.30
2022-11-10T12:10:55.644Z,10.30
2022-11-10T12:13:42.077Z,10.20
2022-11-10T12:16:28.727Z,10.20
2022-11-10T12:19:20.588Z,10.20
2022-11-10T12:22:48.088Z,10.10
2022-11-10T12:25:34.056Z,10.00
2022-11-10T12:28:18.585Z,10.00
2022-11-10T12:30:47.552Z,10.00
2022-11-10T12:33:39.015Z,10.00
2022-11-10T12:36:12.127Z,10.00
2022-11-10T12:39:15.630Z,9.90
2022-11-10T12:41:50.468Z,9.90
2022-11-10T12:44:39.829Z,9.80
2022-11-10T12:47:15.857Z,9.70
2022-11-10T12:50:09.668Z,9.80
2022-11-10T12:52:44.806Z,9.90
2022-11-10T12:55:15.563Z,9.80
2022-11-10T12:57:44.775Z,9.80
2022-11-10T13:00:28.174Z,9.80
2022-11-10T13:02:57.138Z,9.80
2022-11-10T13:05:29.284Z,9.70
2022-11-10T13:08:14.426Z,9.80
2022-11-10T13:10:54.782Z,9.70
2022-11-10T13:13:23.703Z,9.60
2022-11-10T13:15:56.643Z,9.50
2022-11-10T13:18:32.633Z,9.50
2022-11-10T13:21:00.296Z,9.40
2022-11-10T13:23:30.260Z,9.40
2022-11-10T13:26:01.609Z,9.30
2022-11-10T13:29:01.700Z,9.20
2022-11-10T13:31:29.140Z,9.20
2022-11-10T13:34:06.697Z,9.10
2022-11-10T13:36:43.071Z,9.20
2022-11-10T13:39:28.982Z,9.10
2022-11-10T13:42:08.425Z,9.10
2022-11-10T13:44:41.056Z,9.10
2022-11-10T13:47:08.256Z,9.00
2022-11-10T13:50:00.110Z,9.00
2022-11-10T13:53:16.716Z,9.00
2022-11-10T13:55:52.439Z,9.10
2022-11-10T13:58:26.529Z,9.10
2022-11-10T14:01:15.490Z,9.10
2022-11-10T14:03:45.697Z,9.00
2022-11-10T14:06:36.169Z,9.00
2022-11-10T14:09:25.018Z,8.90
2022-11-10T14:12:06.894Z,8.90
2022-11-10T14:14:46.348Z,8.90
2022-11-10T14:17:27.140Z,8.90
2022-11-10T14:19:54.431Z,8.90
2022-11-10T14:22:43.232Z,8.90
2022-11-10T14:25:39.737Z,8.90
2022-11-10T14:28:30.264Z,8.90
2022-11-10T14:30:58.203Z,9.00
2022-11-10T14:33:26.792Z,9.00
2022-11-10T14:36:00.431Z,8.90
2022-11-10T14:38:37.365Z,9.00
2022-11-10T14:41:06.937Z,9.00
2022-11-10T14:43:39.713Z,9.10
2022-11-10T14:46:08.097Z,9.10
2022-11-10T14:48:37.926Z,9.10
2022-11-10T14:51:09.345Z,9.20
2022-11-10T14:53:41.458Z,9.20
2022-11-10T14:56:16.488Z,9.10
2022-11-10T14:58:46.091Z,9.10
2022-11-10T15:01:42.400Z,9.00
2022-11-10T15:04:14.234Z,9.10
2022-11-10T15:06:46.802Z,9.10
2022-11-10T15:09:21.834Z,9.10
2022-11-10T15:12:13.805Z,9.10
2022-11-10T15:14:47.977Z,9.10
2022-11-10T15:17:18.017Z,9.10
2022-11-10T15:19:48.711Z,9.00
2022-11-10T15:22:29.598Z,9.00
2022-11-10T15:25:00.431Z,9.10
2022-11-10T15:27:30.961Z,9.10
2022-11-10T15:30:00.932Z,9.00
2022-11-10T15:32:41.027Z,8.90
2022-11-10T15:35:24.818Z,8.80
2022-11-10T15:38:04.173Z,8.60
2022-11-10T15:40:46.646Z,8.50
2022-11-10T15:43:16.870Z,8.40
2022-11-10T15:45:44.817Z,8.20
2022-11-10T15:48:15.000Z,8.10
2022-11-10T15:50:45.566Z,8.10
2022-11-10T15:53:19.772Z,8.00
2022-11-10T15:55:47.197Z,7.90
2022-11-10T15:58:20.874Z,7.80
2022-11-10T16:00:48.885Z,7.90
2022-11-10T16:03:19.715Z,7.70
2022-11-10T16:05:48.567Z,7.60
2022-11-10T16:08:21.497Z,7.50
2022-11-10T16:10:56.026Z,7.50
2022-11-10T16:13:26.758Z,7.50
2022-11-10T16:15:54.609Z,7.40
2022-11-10T16:18:24.643Z,7.40
2022-11-10T16:20:53.016Z,7.40
2022-11-10T16:23:21.186Z,7.30
2022-11-10T16:25:51.115Z,7.40
2022-11-10T16:28:24.100Z,7.40
2022-11-10T16:30:53.065Z,7.30
2022-11-10T16:33:23.817Z,7.30
2022-11-10T16:35:54.049Z,7.20
2022-11-10T16:38:29.030Z,7.20
2022-11-10T16:41:01.667Z,7.20
2022-11-10T16:43:31.094Z,7.20
2022-11-10T16:46:02.404Z,7.10
2022-11-10T16:48:32.842Z,7.20
2022-11-10T16:51:01.627Z,7.10
2022-11-10T16:53:31.453Z,7.20
2022-11-10T16:55:59.017Z,7.10
2022-11-10T16:58:29.500Z,7.10
2022-11-10T17:01:00.765Z,7.10
2022-11-10T17:03:32.621Z,7.00
2022-11-10T17:06:00.184Z,7.10
2022-11-10T17:08:30.424Z,7.10
2022-11-10T17:10:57.705Z,7.00
2022-11-10T17:13:26.056Z,7.10
2022-11-10T17:15:57.827Z,7.00
2022-11-10T17:18:25.265Z,6.90
2022-11-10T17:20:53.499Z,6.90
2022-11-10T17:23:23.626Z,6.90
2022-11-10T17:25:54.614Z,6.80
2022-11-10T17:28:22.238Z,6.80
2022-11-10T17:30:49.433Z,6.80
2022-11-10T17:33:16.559Z,6.90
2022-11-10T17:35:49.514Z,6.90
2022-11-10T17:38:22.884Z,7.00
2022-11-10T17:40:51.247Z,7.00
2022-11-10T17:43:18.560Z,7.00
2022-11-10T17:45:45.718Z,7.10
2022-11-10T17:48:12.950Z,7.00
2022-11-10T17:50:42.320Z,7.10
2022-11-10T17:53:15.568Z,7.10
2022-11-10T17:55:42.833Z,7.00
2022-11-10T17:58:11.062Z,7.00
2022-11-10T18:00:38.310Z,7.00
2022-11-10T18:03:10.326Z,7.00
2022-11-10T18:05:38.584Z,7.00
2022-11-10T18:08:05.704Z,6.90
2022-11-10T18:10:32.791Z,7.00
2022-11-10T18:13:00.069Z,6.90
2022-11-10T18:15:27.367Z,7.00
2022-11-10T18:18:00.090Z,6.90
2022-11-10T18:20:28.307Z,6.90
2022-11-10T18:22:55.559Z,6.90
2022-11-10T18:25:22.900Z,6.90
2022-11-10T18:27:50.190Z,6.90
2022-11-10T18:30:18.478Z,7.00
2022-11-10T18:32:46.078Z,6.90
2022-11-10T18:35:13.624Z,6.90
2022-11-10T18:37:40.880Z,6.80
2022-11-10T18:40:09.077Z,6.90
2022-11-10T18:42:37.628Z,6.90
2022-11-10T18:45:05.410Z,6.90
2022-11-10T18:47:32.486Z,6.90
2022-11-10T18:49:59.677Z,6.90
2022-11-10T18:52:26.878Z,7.00
2022-11-10T18:54:54.075Z,7.00
2022-11-10T18:57:21.361Z,7.10
2022-11-10T18:59:48.595Z,7.20
2022-11-10T19:02:16.064Z,7.20
2022-11-10T19:04:43.431Z,7.20
2022-11-10T19:07:10.581Z,7.20
2022-11-10T19:09:37.783Z,7.20
2022-11-10T19:12:05.585Z,7.30
2022-11-10T19:14:32.791Z,7.30
2022-11-10T19:16:59.962Z,7.30
2022-11-10T19:19:27.417Z,7.40
2022-11-10T19:21:54.927Z,7.40
2022-11-10T19:24:28.104Z,7.50
2022-11-10T19:26:55.668Z,7.50
2022-11-10T19:29:22.845Z,7.50
2022-11-10T19:31:50.074Z,7.50
2022-11-10T19:34:20.263Z,7.60
2022-11-10T19:36:49.270Z,7.70
2022-11-10T19:39:16.550Z,7.70
2022-11-10T19:41:43.721Z,7.80
2022-11-10T19:44:10.924Z,7.80
2022-11-10T19:46:39.171Z,7.80
2022-11-10T19:49:06.595Z,7.90
2022-11-10T19:51:34.446Z,7.80
2022-11-10T19:54:03.213Z,7.80
2022-11-10T19:56:33.734Z,7.90
2022-11-10T19:59:01.077Z,7.90
2022-11-10T20:01:28.303Z,8.00
2022-11-10T20:03:55.554Z,8.10
2022-11-10T20:06:23.536Z,8.10
2022-11-10T20:08:50.889Z,8.20
2022-11-10T20:11:26.106Z,8.10
2022-11-10T20:13:55.858Z,8.20
2022-11-10T20:16:23.316Z,8.20
2022-11-10T20:18:50.760Z,8.20
2022-11-10T20:21:22.466Z,8.30
2022-11-10T20:23:55.243Z,8.30
2022-11-10T20:26:23.809Z,8.30
2022-11-10T20:28:51.483Z,8.40
2022-11-10T20:31:23.741Z,8.40
2022-11-10T20:33:52.912Z,8.40
2022-11-10T20:36:29.125Z,8.50
2022-11-10T20:38:59.332Z,8.40
2022-11-10T20:41:28.795Z,8.40
2022-11-10T20:43:56.339Z,8.40
2022-11-10T20:49:11.396Z,8.40
2022-11-10T20:51:38.736Z,8.40
2022-11-10T20:54:06.031Z,8.40
2022-11-10T20:56:33.279Z,8.50
2022-11-10T20:59:00.674Z,8.50
2022-11-10T21:01:27.933Z,8.60
2022-11-10T21:03:55.317Z,8.60
2022-11-10T21:06:22.605Z,8.60
2022-11-10T21:08:50.611Z,8.60
2022-11-10T21:11:38.071Z,8.60
2022-11-10T21:14:05.442Z,8.70
2022-11-10T21:16:32.746Z,8.80
2022-11-10T21:19:00.989Z,8.80
2022-11-10T21:21:34.559Z,8.80
2022-11-10T21:24:04.113Z,8.80
2022-11-10T21:26:35.847Z,8.80
2022-11-10T21:29:04.350Z,8.90
2022-11-10T21:31:32.218Z,8.90
2022-11-10T21:33:59.744Z,9.00
2022-11-10T21:36:29.711Z,9.00
2022-11-10T21:38:58.228Z,9.00
2022-11-10T21:41:26.470Z,9.10
2022-11-10T21:43:53.745Z,9.10
2022-11-10T21:46:21.129Z,9.10
2022-11-10T21:48:49.971Z,9.10
2022-11-10T21:51:17.373Z,9.10
2022-11-10T21:53:44.741Z,9.10
2022-11-10T21:56:12.585Z,9.20
2022-11-10T21:58:40.235Z,9.20
2022-11-10T22:01:18.335Z,9.20
2022-11-10T22:03:45.888Z,9.20
2022-11-10T22:06:17.976Z,9.30
2022-11-10T22:08:47.497Z,9.30
2022-11-10T22:11:39.188Z,9.40
2022-11-10T22:14:31.841Z,9.40
2022-11-10T22:17:18.500Z,9.50
2022-11-10T22:19:45.756Z,9.40
2022-11-10T22:22:16.168Z,9.40
2022-11-10T22:24:43.570Z,9.40
2022-11-10T22:27:10.863Z,9.40
2022-11-10T22:29:38.070Z,9.40
2022-11-10T22:32:05.490Z,9.50
2022-11-10T22:34:32.882Z,9.50
2022-11-10T22:37:00.050Z,9.50
2022-11-10T22:39:46.084Z,9.60
2022-11-10T22:42:31.857Z,9.60
2022-11-10T22:44:59.268Z,9.60
2022-11-10T22:47:46.441Z,9.60
2022-11-10T22:50:13.686Z,9.60
2022-11-10T22:52:40.817Z,9.60
2022-11-10T22:55:08.207Z,9.60
2022-11-10T22:57:35.416Z,9.60
2022-11-10T23:00:02.816Z,9.60
2022-11-10T23:02:30.158Z,9.60
2022-11-10T23:04:57.418Z,9.60
2022-11-10T23:07:24.587Z,9.60
2022-11-10T23:09:51.936Z,9.60
2022-11-10T23:12:19.305Z,9.60
2022-11-10T23:14:46.434Z,9.60
2022-11-10T23:17:13.573Z,9.60
2022-11-10T23:19:40.895Z,9.60
2022-11-10T23:22:08.061Z,9.60
2022-11-10T23:24:35.353Z,9.60
2022-11-10T23:27:02.695Z,9.60
2022-11-10T23:29:30.078Z,9.70
2022-11-10T23:31:57.274Z,9.70
2022-11-10T23:34:24.582Z,9.70
2022-11-10T23:36:51.871Z,9.70
2022-11-10T23:39:19.350Z,9.70
2022-11-10T23:41:46.738Z,9.70
2022-11-10T23:44:13.860Z,9.70
2022-11-10T23:46:41.026Z,9.80
2022-11-10T23:49:08.198Z,9.80
2022-11-10T23:51:35.343Z,9.90
2022-11-10T23:54:02.468Z,9.90
2022-11-10T23:56:29.579Z,9.90
2022-11-10T23:58:56.765Z,9.90
